Tanana, AK (99777)

8:10 PM AKDT on April 26, 2017 (GMT -0800)
Calhoun Memorial | | Change Station

Elev 226 ft 65.17 °N, 152.11 °W | Updated 18 minutes ago

Partly Cloudy
Partly Cloudy
42 °F
Feels Like 37 °F
N
9
Wind Variable Wind from East

Today
High -- | Low -- °F
--% Chance of Precip.
Yesterday
High -- | Low -- °F
Precip. -- in
Pressure 29.64 in
Visibility 10.0 miles
Clouds Few 4500 ft
Few 9000 ft
Scattered Clouds 16000 ft
Windchill 37 °F
Dew Point 23 °F
Humidity 47%
Rainfall 0.00 in
Snow Depth Not available.
5:49 AM 10:25 PM
New Moon, 1% visible
METAR PATA 270352Z 10008KT 10SM FEW045 FEW090 SCT160 06/M05 A2962 RMK AO2 SLP035 T00561050 PNO
Pressure 29.64 in
Visibility 10.0 miles
Clouds Few 4500 ft
Few 9000 ft
Scattered Clouds 16000 ft
Windchill 37 °F
Dew Point 23 °F
Humidity 47%
Rainfall 0.00 in
Snow Depth Not available.
5:49 AM 10:25 PM
New Moon, 1% visible
METAR PATA 270352Z 10008KT 10SM FEW045 FEW090 SCT160 06/M05 A2962 RMK AO2 SLP035 T00561050 PNO

Get Severe Weather Alerts

Thanks for signing up!

Be on the lookout for a verification email in your inbox.

You'll start receiving the daily forecast at 8 AM.

×

10-Day Weather Forecast

Almanac

Astronomy

Apr. 26, 2017 Rise Set
Actual Time
Civil Twilight
Nautical Twilight
Astronomical Twilight
Moon
Length of Visible Light
Length of Day
Tomorrow will be .
, % of the Moon is Illuminated

Today's Extremes

State Highs State Lows

Community

WunderPhotos

WunderBlog® & News

Nearby

Air Quality

  Air Quality AQ Index Pollutant
Not available.

Snow Depth

Station Depth Elevation

Earthquake Activity

City Distance Mag. Time & Date
Minimum magnitude displayed is 2.5.

Coastal Water Temperatures

Place Temperature

Stations

Nearby Weather Stations

Station Location Temp. Windchill Dew Point Humidity Wind Precip. Elev Updated Type
                   

Watches & Warnings

There are currently no watches in effect.